Sagola, Michigan
Current Conditions -  °F | °C
As of 8:54 AM on Friday 28 Nov 2014 (Local Time) from KIMT Reporting Station
Overcast Overcast  
Wind Chill:   Ceiling: 10000
Heat Index:   Visibility: 10mi
Dew Point:   Wind: 3mph
Humidity: 80%   Direction: 170°S
Pressure: 30.13"   Gusts: NA
Location:  46.09°N, 88.08°W
Report Text: KIMT 281454Z AUTO 17003KT 10SM SCT050 OVC100 M13/M16 A3013 RMK AO2 SLP237 I1000 I3000 T11331161 56018
Loading
Personal Weather Stations






























Interactive Weather Map New forecast layout! Learn more

10-Day Weather Forecast

Advertisements
Track Severe Weather on mobile